GCHI/VDE METAR and TAF weather

Enter ICAO airport designator
Station Type Date Time Source
GCHI METAR 2019/02/23 23:00 UTC NOAA

GCHI 232300Z AUTO 20006KT CAVOK 19/15 Q1022


Station Type Date Time Source
GCHI Decoded METAR 2019/02/23 23:00 UTC NOAA

Hierro / Aeropuerto, Spain (GCHI) 27-49N 017-53W 32M
Feb 23, 2019 - 06:00 PM EST / 2019.02.23 2300 UTC
Wind: from the SSW (200 degrees) at 7 MPH (6 KT):0
Visibility: greater than 7 mile(s):0
Temperature: 66 F (19 C)
Dew Point: 59 F (15 C)
Relative Humidity: 77%
Pressure (altimeter): 30.18 in. Hg (1022 hPa)
ob: GCHI 232300Z AUTO 20006KT CAVOK 19/15 Q1022
cycle: 23

Station Type Date Time Source
GCHI TAF 2019/02/23 21:00 UTC NOAA

TAF GCHI 232000Z 2321/2421 18008KT CAVOK TX24/2415Z TN18/2406Z PROB30
TEMPO 2321/2415 4500 HZ


Example: see airport list